Time;durP1;ratioP1;P1;durP2;ratioP2;P2;SDS_P1;SDS_P2;PMS_P1;PMS_P2;Temp;Humidity;BMP_temperature;BMP_pressure;BME280_temperature;BME280_humidity;BME280_pressure;Samples;Min_cycle;Max_cycle;Signal;HPM_P1;HPM_P2
2022/11/24 00:01:29;;;;;;;21.95;14.65;;;;;;;7.03;100.00;99252.97;5063888;28;20036;-66
2022/11/24 00:04:00;;;;;;;22.25;15.35;;;;;;;6.99;100.00;99258.56;5061511;28;20182;-66
2022/11/24 00:06:26;;;;;;;20.90;14.70;;;;;;;6.88;100.00;99253.38;5059749;28;20036;-66
2022/11/24 00:08:52;;;;;;;21.38;15.32;;;;;;;6.91;100.00;99257.59;5058148;28;20017;-66
2022/11/24 00:11:26;;;;;;;20.88;14.23;;;;;;;6.91;100.00;99274.41;5052672;28;20040;-66
2022/11/24 00:13:52;;;;;;;;;;;;;;;6.94;100.00;99275.97;5055946;28;20040;-66
2022/11/24 00:16:19;;;;;;;21.23;14.63;;;;;;;6.93;100.00;99275.13;5063016;28;19912;-66
2022/11/24 00:18:46;;;;;;;23.08;15.80;;;;;;;6.92;100.00;99262.78;5056210;28;20555;-66
2022/11/24 00:21:14;;;;;;;25.35;16.33;;;;;;;6.97;100.00;99273.84;5063290;28;20119;-66
2022/11/24 00:23:39;;;;;;;25.73;16.85;;;;;;;6.94;100.00;99279.44;5048904;28;20395;-66
2022/11/24 00:26:07;;;;;;;25.33;17.13;;;;;;;6.93;100.00;99285.78;5057823;28;20036;-66
2022/11/24 00:28:34;;;;;;;27.52;18.42;;;;;;;6.84;100.00;99285.75;5050871;28;20082;-66
2022/11/24 00:31:00;;;;;;;33.78;17.92;;;;;;;6.73;100.00;99278.72;5062529;28;20027;-66
2022/11/24 00:33:25;;;;;;;28.92;17.20;;;;;;;6.73;100.00;99275.19;5051524;28;20029;-66
2022/11/24 00:35:57;;;;;;;26.90;18.70;;;;;;;6.64;100.00;99274.19;5052199;28;20039;-66
2022/11/24 00:38:23;;;;;;;30.52;18.77;;;;;;;6.64;100.00;99273.34;5053148;28;20044;-66
2022/11/24 00:40:50;;;;;;;32.08;19.83;;;;;;;6.64;100.00;99295.50;5050615;28;20029;-66
2022/11/24 00:43:16;;;;;;;32.55;19.95;;;;;;;6.58;100.00;99279.22;5057563;28;20469;-66
2022/11/24 00:45:41;;;;;;;27.75;19.15;;;;;;;6.52;100.00;99277.09;5050567;28;20115;-66
2022/11/24 00:48:07;;;;;;;31.63;20.42;;;;;;;6.78;100.00;99291.63;5060948;28;20480;-65
2022/11/24 00:50:33;;;;;;;29.23;19.30;;;;;;;6.73;100.00;99288.50;5055537;28;20033;-66
2022/11/24 00:52:58;;;;;;;28.63;19.00;;;;;;;6.72;100.00;99285.03;5056974;28;20090;-66
2022/11/24 00:55:24;;;;;;;31.42;19.23;;;;;;;6.74;100.00;99279.56;5063922;28;20043;-66
2022/11/24 00:57:50;;;;;;;31.88;20.33;;;;;;;6.81;100.00;99294.84;5055051;28;20036;-66
2022/11/24 01:00:16;;;;;;;26.27;17.50;;;;;;;6.77;100.00;99296.09;5062834;28;20032;-74
2022/11/24 01:02:42;;;;;;;29.52;19.08;;;;;;;6.84;100.00;99297.25;5051150;28;20035;-75
2022/11/24 01:05:07;;;;;;;27.48;18.40;;;;;;;6.87;100.00;99302.31;5055754;28;20029;-74
2022/11/24 01:07:33;;;;;;;29.02;18.98;;;;;;;6.79;100.00;99301.31;5060279;28;20051;-74
2022/11/24 01:09:58;;;;;;;29.23;19.35;;;;;;;6.65;100.00;99296.34;5056017;28;20463;-75
2022/11/24 01:12:23;;;;;;;33.58;20.15;;;;;;;6.67;100.00;99295.25;5059992;28;20043;-74
2022/11/24 01:14:49;;;;;;;28.20;19.50;;;;;;;6.69;100.00;99311.94;5057887;28;20480;-74
2022/11/24 01:17:14;;;;;;;32.33;20.60;;;;;;;6.79;100.00;99307.47;5058624;28;20032;-74
2022/11/24 01:19:40;;;;;;;30.98;19.63;;;;;;;6.79;100.00;99299.50;5049857;28;20033;-75
2022/11/24 01:22:05;;;;;;;35.05;21.38;;;;;;;6.82;100.00;99311.69;5059363;28;20028;-74
2022/11/24 01:24:31;;;;;;;32.17;20.77;;;;;;;6.84;100.00;99317.75;5054726;28;20032;-74
2022/11/24 01:26:56;;;;;;;30.48;19.65;;;;;;;6.81;100.00;99315.34;5053768;28;20025;-74
2022/11/24 01:29:21;;;;;;;31.00;19.63;;;;;;;6.75;100.00;99310.56;5062033;28;20032;-65
2022/11/24 01:31:47;;;;;;;34.20;20.67;;;;;;;6.76;100.00;99313.09;5054772;28;20028;-66
2022/11/24 01:34:12;;;;;;;30.45;20.10;;;;;;;6.73;100.00;99310.69;5058581;28;20043;-66
2022/11/24 01:36:38;;;;;;;30.35;19.48;;;;;;;6.71;100.00;99315.28;5051922;28;20021;-66
2022/11/24 01:39:04;;;;;;;33.03;21.30;;;;;;;6.76;100.00;99322.88;5046851;28;20416;-66
2022/11/24 01:41:29;;;;;;;34.65;21.35;;;;;;;6.81;100.00;99326.81;5052766;28;20044;-66
2022/11/24 01:43:55;;;;;;;28.90;19.83;;;;;;;6.74;100.00;99325.69;5052775;28;20052;-66
2022/11/24 01:46:26;;;;;;;31.88;20.92;;;;;;;6.76;100.00;99322.88;5052147;28;20043;-66
2022/11/24 01:49:07;;;;;;;31.63;21.05;;;;;;;6.76;100.00;99328.22;5054963;28;20020;-74
2022/11/24 01:51:36;;;;;;;32.92;20.67;;;;;;;6.77;100.00;99327.22;5047307;28;20029;-74
2022/11/24 01:54:27;;;;;;;28.67;19.77;;;;;;;6.68;100.00;99336.88;5062220;28;20516;-74
2022/11/24 01:56:56;;;;;;;26.23;18.92;;;;;;;6.50;100.00;99319.84;5053316;28;20048;-74
2022/11/24 01:59:22;;;;;;;30.38;20.85;;;;;;;6.58;100.00;99329.84;5056588;28;20032;-74
2022/11/24 02:01:50;;;;;;;31.42;20.90;;;;;;;6.58;100.00;99329.84;5055598;28;20033;-74
2022/11/24 02:04:22;;;;;;;29.40;19.98;;;;;;;6.54;100.00;99331.06;5046339;28;20118;-75
2022/11/24 02:06:50;;;;;;;29.63;19.35;;;;;;;6.53;100.00;99329.38;5055558;28;22106;-74
2022/11/24 02:09:20;;;;;;;28.42;18.83;;;;;;;6.62;100.00;99320.59;5058933;28;20021;-75
2022/11/24 02:11:46;;;;;;;26.98;18.20;;;;;;;6.72;100.00;99340.13;5057725;28;20123;-74
2022/11/24 02:14:15;;;;;;;27.65;18.42;;;;;;;6.58;100.00;99335.16;5062128;28;20579;-76
2022/11/24 02:16:45;;;;;;;26.92;17.70;;;;;;;6.58;100.00;99328.00;5053250;28;20450;-66
2022/11/24 02:19:40;;;;;;;26.25;17.08;;;;;;;6.69;100.00;99351.91;5060160;28;20028;-66
2022/11/24 02:22:20;;;;;;;26.63;17.23;;;;;;;6.63;100.00;99349.78;5024395;28;20166;-65
2022/11/24 02:24:51;;;;;;;24.02;16.67;;;;;;;6.71;100.00;99343.78;5055379;28;20047;-65
2022/11/24 02:27:17;;;;;;;21.75;16.23;;;;;;;6.52;100.00;99331.19;5048835;28;20086;-66
2022/11/24 02:29:43;;;;;;;20.85;16.00;;;;;;;6.57;100.00;99336.13;5052023;28;20028;-65
2022/11/24 02:32:10;;;;;;;22.67;15.48;;;;;;;6.64;100.00;99342.59;5062740;28;20028;-66
2022/11/24 02:34:35;;;;;;;21.30;16.02;;;;;;;6.66;100.00;99343.31;5066078;28;20039;-74
2022/11/24 02:37:01;;;;;;;24.85;16.60;;;;;;;6.48;100.00;99335.09;5061384;28;20024;-74
2022/11/24 02:39:26;;;;;;;21.80;15.88;;;;;;;6.53;100.00;99340.03;5062278;28;20024;-74
2022/11/24 02:41:57;;;;;;;25.20;17.15;;;;;;;6.53;100.00;99354.22;5057363;28;20021;-73
2022/11/24 02:44:27;;;;;;;24.55;16.73;;;;;;;6.69;100.00;99345.72;5060396;28;20057;-75
2022/11/24 02:47:08;;;;;;;21.50;16.17;;;;;;;6.63;100.00;99352.44;5049962;28;20119;-75
2022/11/24 02:49:34;;;;;;;22.65;15.48;;;;;;;6.54;100.00;99339.06;5056389;28;20116;-74
2022/11/24 02:51:59;;;;;;;21.33;15.27;;;;;;;6.55;100.00;99338.09;5055296;28;20040;-75
2022/11/24 02:54:25;;;;;;;27.10;17.65;;;;;;;6.58;100.00;99349.31;5056580;28;20041;-65
2022/11/24 02:56:51;;;;;;;22.27;16.73;;;;;;;6.58;100.00;99348.50;5058144;28;20028;-65
2022/11/24 02:59:16;;;;;;;25.63;17.85;;;;;;;6.58;100.00;99336.00;5060022;28;20484;-66
2022/11/24 03:01:42;;;;;;;25.90;16.77;;;;;;;6.68;100.00;99355.53;5065129;28;20432;-66
2022/11/24 03:04:07;;;;;;;21.90;15.32;;;;;;;6.67;100.00;99353.84;5050851;28;20044;-66
2022/11/24 03:06:33;;;;;;;22.55;14.98;;;;;;;6.58;100.00;99346.66;5064305;28;20029;-66
2022/11/24 03:08:58;;;;;;;23.15;15.52;;;;;;;6.85;100.00;99348.72;5049098;28;20025;-66
2022/11/24 03:11:23;;;;;;;21.90;16.52;;;;;;;6.86;100.00;99363.72;5056743;28;20024;-65
2022/11/24 03:13:49;;;;;;;25.95;16.52;;;;;;;6.79;100.00;99354.59;5061982;28;20622;-65
2022/11/24 03:16:15;;;;;;;23.38;16.33;;;;;;;6.86;100.00;99361.91;5068784;28;20036;-66
2022/11/24 03:18:40;;;;;;;25.15;17.48;;;;;;;6.84;100.00;99357.72;5061468;28;20040;-66
2022/11/24 03:21:06;;;;;;;25.63;17.00;;;;;;;6.71;100.00;99357.09;5065259;28;20033;-65
2022/11/24 03:23:31;;;;;;;24.48;16.35;;;;;;;6.84;100.00;99358.53;5060432;28;20472;-66
2022/11/24 03:26:12;;;;;;;25.73;16.38;;;;;;;6.65;100.00;99353.13;5053418;28;20033;-66
2022/11/24 03:28:38;;;;;;;23.63;15.73;;;;;;;6.72;100.00;99367.63;5054625;28;20040;-74
2022/11/24 03:31:04;;;;;;;24.80;16.10;;;;;;;6.69;100.00;99364.38;5053388;28;20033;-74
2022/11/24 03:33:29;;;;;;;25.75;16.88;;;;;;;6.65;100.00;99374.44;5051422;28;20447;-75
2022/11/24 03:35:55;;;;;;;28.00;17.88;;;;;;;6.84;100.00;99374.53;5060270;28;20025;-74
2022/11/24 03:38:20;;;;;;;28.83;18.58;;;;;;;6.87;100.00;99378.75;5055782;28;20063;-74
2022/11/24 03:40:45;;;;;;;27.63;17.35;;;;;;;6.76;100.00;99366.38;5057862;28;20053;-74
2022/11/24 03:43:11;;;;;;;27.67;17.98;;;;;;;6.66;100.00;99376.16;5053550;28;20041;-74
2022/11/24 03:45:36;;;;;;;31.02;18.52;;;;;;;6.81;100.00;99385.44;5061046;28;20037;-74
2022/11/24 03:48:02;;;;;;;30.48;18.33;;;;;;;6.85;100.00;99381.56;5058165;28;20024;-74
2022/11/24 03:50:27;;;;;;;29.35;18.70;;;;;;;6.79;100.00;99382.09;5058703;28;20107;-74
2022/11/24 03:52:52;;;;;;;29.70;17.90;;;;;;;6.81;100.00;99405.94;5059786;28;20059;-74
2022/11/24 03:55:18;;;;;;;34.20;20.27;;;;;;;6.76;100.00;99405.47;5058554;28;20029;-74
2022/11/24 03:57:43;;;;;;;33.70;20.05;;;;;;;6.74;100.00;99392.28;5054076;28;20082;-74
2022/11/24 04:00:10;;;;;;;33.67;19.45;;;;;;;6.80;100.00;99398.91;5057015;28;20029;-74
2022/11/24 04:02:35;;;;;;;32.85;20.45;;;;;;;6.79;100.00;99405.22;5054624;28;20073;-74
2022/11/24 04:05:00;;;;;;;33.78;20.15;;;;;;;6.65;100.00;99405.59;5060089;28;20434;-74
2022/11/24 04:07:26;;;;;;;35.47;21.70;;;;;;;6.75;100.00;99404.63;5057743;28;20028;-75
2022/11/24 04:09:51;;;;;;;39.10;23.45;;;;;;;6.69;100.00;99402.53;5059346;28;20020;-74
2022/11/24 04:15:01;;;;;;;46.05;26.52;;;;;;;6.75;100.00;99412.63;5055986;28;20519;-74
2022/11/24 04:17:27;;;;;;;50.63;27.55;;;;;;;6.85;100.00;99418.03;5053073;28;20028;-74
2022/11/24 04:19:52;;;;;;;45.30;26.23;;;;;;;6.70;100.00;99414.00;5048701;28;20032;-74
2022/11/24 04:22:18;;;;;;;51.60;29.10;;;;;;;6.80;100.00;99417.56;5053327;28;20032;-75
2022/11/24 04:24:43;;;;;;;49.17;27.45;;;;;;;6.61;100.00;99410.31;5056334;28;20033;-74
2022/11/24 04:27:09;;;;;;;53.38;28.92;;;;;;;6.67;100.00;99424.91;5052885;28;20028;-75
2022/11/24 04:29:34;;;;;;;52.00;28.88;;;;;;;6.60;100.00;99419.28;5060473;28;20033;-74
2022/11/24 04:32:00;;;;;;;52.13;30.45;;;;;;;6.65;100.00;99416.25;5050909;28;20465;-74
2022/11/24 04:34:25;;;;;;;58.92;30.80;;;;;;;6.67;100.00;99428.44;5060265;28;20036;-74
2022/11/24 04:36:50;;;;;;;57.17;31.65;;;;;;;6.59;100.00;99430.94;5048995;28;20036;-74
2022/11/24 04:39:16;;;;;;;57.22;31.20;;;;;;;6.56;100.00;99427.69;5052049;28;20033;-74
2022/11/24 04:41:41;;;;;;;66.75;34.90;;;;;;;6.58;100.00;99434.56;5051657;28;20055;-75
2022/11/24 04:44:07;;;;;;;59.15;33.08;;;;;;;6.61;100.00;99444.94;5057837;28;20128;-74
2022/11/24 04:46:32;;;;;;;59.13;33.17;;;;;;;6.61;100.00;99452.13;5057691;28;20123;-74
2022/11/24 04:48:58;;;;;;;66.10;35.28;;;;;;;6.64;100.00;99455.34;5059260;28;20039;-74
2022/11/24 04:51:23;;;;;;;68.85;33.92;;;;;;;6.68;100.00;99456.75;5054369;28;20078;-73
2022/11/24 04:53:48;;;;;;;62.80;34.15;;;;;;;6.64;100.00;99468.66;5053394;28;20025;-74
2022/11/24 04:56:14;;;;;;;61.38;34.13;;;;;;;6.68;100.00;99461.28;5055403;28;20021;-74
2022/11/24 04:58:39;;;;;;;63.28;33.40;;;;;;;6.63;100.00;99459.00;5053277;28;20051;-74
2022/11/24 05:01:07;;;;;;;65.68;34.75;;;;;;;6.67;100.00;99478.22;5059202;28;20039;-66
2022/11/24 05:03:33;;;;;;;63.80;32.58;;;;;;;6.57;100.00;99478.16;5056579;28;20074;-66
2022/11/24 05:05:58;;;;;;;57.55;32.17;;;;;;;6.46;100.00;99478.22;5063249;28;20450;-66
2022/11/24 05:08:24;;;;;;;64.72;36.63;;;;;;;6.61;100.00;99503.56;5061534;28;20046;-66
2022/11/24 05:10:49;;;;;;;68.95;37.83;;;;;;;6.58;100.00;99493.16;5062373;28;20027;-66
2022/11/24 05:13:15;;;;;;;73.28;36.22;;;;;;;6.59;100.00;99492.19;5055678;28;20115;-66
2022/11/24 05:15:40;;;;;;;68.25;36.35;;;;;;;6.54;100.00;99494.41;5060630;28;20034;-66
2022/11/24 05:18:15;;;;;;;70.55;35.75;;;;;;;6.61;100.00;99513.38;5063908;28;20029;-74
2022/11/24 05:20:40;;;;;;;71.72;35.83;;;;;;;6.62;100.00;99515.88;5058712;28;20034;-74
2022/11/24 05:23:07;;;;;;;75.18;36.75;;;;;;;6.61;100.00;99521.38;5060281;28;20024;-74
2022/11/24 05:25:33;;;;;;;74.90;37.80;;;;;;;6.52;100.00;99517.63;5053662;28;20086;-74
2022/11/24 05:28:00;;;;;;;71.90;36.58;;;;;;;6.39;100.00;99516.97;5058671;28;20033;-74
2022/11/24 05:30:26;;;;;;;72.72;36.83;;;;;;;6.44;100.00;99514.78;5054269;28;20032;-73
2022/11/24 05:32:52;;;;;;;73.50;37.67;;;;;;;6.38;100.00;99523.28;5052120;28;20021;-73
2022/11/24 05:35:17;;;;;;;71.40;36.45;;;;;;;6.31;100.00;99531.91;5062446;28;20488;-74
2022/11/24 05:37:43;;;;;;;72.13;36.58;;;;;;;6.47;100.00;99530.53;5060608;28;20036;-66
2022/11/24 05:40:09;;;;;;;75.25;36.53;;;;;;;6.35;100.00;99536.84;5054146;28;20028;-65
2022/11/24 05:42:41;;;;;;;77.32;37.10;;;;;;;6.24;100.00;99542.22;5057117;28;20273;-66
2022/11/24 05:45:12;;;;;;;81.07;39.70;;;;;;;6.31;100.00;99538.09;5056876;28;20491;-73
2022/11/24 05:47:39;;;;;;;72.78;39.63;;;;;;;6.33;100.00;99556.59;5053932;28;20102;-73
2022/11/24 05:50:05;;;;;;;79.82;39.08;;;;;;;6.23;100.00;99540.53;5052178;28;20028;-73
2022/11/24 05:52:30;;;;;;;81.20;39.83;;;;;;;6.35;100.00;99554.63;5054504;28;20033;-73
2022/11/24 05:54:56;;;;;;;71.43;39.78;;;;;;;6.25;100.00;99564.34;5060002;28;20107;-73
2022/11/24 05:57:21;;;;;;;73.38;38.03;;;;;;;6.27;100.00;99573.06;5055652;28;20032;-73
2022/11/24 05:59:47;;;;;;;75.18;39.47;;;;;;;6.25;100.00;99569.69;5048795;28;20025;-73
2022/11/24 06:02:12;;;;;;;85.47;40.58;;;;;;;6.31;100.00;99572.69;5057519;28;20028;-73
2022/11/24 06:04:38;;;;;;;73.50;39.60;;;;;;;6.17;100.00;99561.50;5058495;28;20037;-73
2022/11/24 06:07:07;;;;;;;73.28;39.63;;;;;;;6.26;100.00;99572.22;5054359;28;20052;-74
2022/11/24 06:09:36;;;;;;;81.10;40.70;;;;;;;6.15;100.00;99572.28;5062458;28;20059;-76
2022/11/24 06:12:02;;;;;;;80.35;40.83;;;;;;;6.09;100.00;99555.94;5055166;28;20024;-73
2022/11/24 06:14:27;;;;;;;76.75;39.05;;;;;;;6.16;100.00;99575.78;5058543;28;20033;-73
2022/11/24 06:16:53;;;;;;;77.20;40.13;;;;;;;6.24;100.00;99576.84;5057291;28;20468;-73
2022/11/24 06:19:18;;;;;;;78.38;39.78;;;;;;;6.23;100.00;99583.13;5055803;28;20036;-74
2022/11/24 06:21:43;;;;;;;83.85;39.67;;;;;;;6.12;100.00;99571.66;5056831;28;20017;-74
2022/11/24 06:24:09;;;;;;;75.90;40.00;;;;;;;6.13;100.00;99576.03;5060783;28;20131;-73
2022/11/24 06:26:34;;;;;;;71.20;39.33;;;;;;;6.08;100.00;99584.38;5054017;28;20025;-73
2022/11/24 06:29:00;;;;;;;75.72;38.80;;;;;;;6.09;100.00;99571.91;5055167;28;20029;-66
2022/11/24 06:31:25;;;;;;;77.50;38.40;;;;;;;6.02;100.00;99571.56;5049925;28;20076;-66
2022/11/24 06:33:51;;;;;;;76.05;37.90;;;;;;;6.06;100.00;99578.34;5054676;28;20052;-65
2022/11/24 06:36:16;;;;;;;80.88;39.60;;;;;;;5.98;100.00;99563.97;5060963;28;20090;-65
2022/11/24 06:38:42;;;;;;;70.83;37.67;;;;;;;6.15;100.00;99574.06;5056091;28;20078;-65
2022/11/24 06:41:11;;;;;;;74.97;37.72;;;;;;;6.13;100.00;99578.69;5053155;28;20056;-65
2022/11/24 06:43:37;;;;;;;75.65;37.33;;;;;;;6.14;100.00;99593.69;5054937;28;20449;-65
2022/11/24 06:46:03;;;;;;;75.78;36.80;;;;;;;6.02;100.00;99576.03;5062313;28;20056;-65
2022/11/24 06:48:29;;;;;;;78.80;40.45;;;;;;;6.10;100.00;99594.91;5060341;28;20139;-65
2022/11/24 06:51:07;;;;;;;79.32;38.67;;;;;;;6.26;100.00;99580.22;5065517;28;20027;-65
2022/11/24 06:53:36;;;;;;;77.40;37.33;;;;;;;6.35;100.00;99590.09;5057022;28;20044;-65
2022/11/24 06:56:03;;;;;;;77.05;37.50;;;;;;;6.47;100.00;99604.22;5048827;28;20411;-64
2022/11/24 06:58:29;;;;;;;76.65;37.63;;;;;;;6.36;100.00;99605.09;5066399;28;20031;-64
2022/11/24 07:00:54;;;;;;;71.20;36.58;;;;;;;6.36;100.00;99612.28;5057546;28;20044;-65
2022/11/24 07:03:20;;;;;;;72.35;36.92;;;;;;;6.37;100.00;99625.47;5062328;28;20090;-65
2022/11/24 07:05:46;;;;;;;77.80;38.08;;;;;;;6.28;100.00;99601.38;5069613;28;20028;-64
2022/11/24 07:08:11;;;;;;;75.55;37.10;;;;;;;6.47;100.00;99637.06;5054817;28;20802;-65
2022/11/24 07:10:37;;;;;;;70.30;36.17;;;;;;;6.42;100.00;99635.75;5068040;28;20431;-65
2022/11/24 07:13:06;;;;;;;72.32;36.08;;;;;;;6.31;100.00;99631.28;5056741;28;20055;-65
2022/11/24 07:15:32;;;;;;;72.40;36.80;;;;;;;6.48;100.00;99646.72;5058674;28;20041;-65
2022/11/24 07:17:57;;;;;;;73.18;36.35;;;;;;;6.33;100.00;99623.16;5060143;28;20040;-65
2022/11/24 07:20:23;;;;;;;73.25;36.65;;;;;;;6.51;100.00;99649.13;5057170;28;20044;-65
2022/11/24 07:22:48;;;;;;;72.18;36.20;;;;;;;6.41;100.00;99639.34;5063488;28;20027;-65
2022/11/24 07:25:14;;;;;;;74.50;35.30;;;;;;;6.42;100.00;99644.56;5052986;28;20029;-65
2022/11/24 07:27:40;;;;;;;81.93;37.75;;;;;;;6.42;100.00;99659.72;5053783;28;20040;-65
2022/11/24 07:30:07;;;;;;;76.40;37.47;;;;;;;6.39;100.00;99659.97;5051417;28;20029;-65
2022/11/24 07:32:32;;;;;;;73.47;36.70;;;;;;;6.29;100.00;99653.69;5065829;28;20059;-65
2022/11/24 07:34:58;;;;;;;79.43;38.13;;;;;;;6.37;100.00;99672.53;5044746;28;20060;-65
2022/11/24 07:37:23;;;;;;;78.80;37.35;;;;;;;6.18;100.00;99673.19;5055013;28;20029;-65
2022/11/24 07:39:49;;;;;;;87.75;40.80;;;;;;;6.24;100.00;99662.03;5058196;28;20078;-65
2022/11/24 07:42:14;;;;;;;80.32;39.08;;;;;;;6.30;100.00;99677.53;5052168;28;20032;-65
2022/11/24 07:44:40;;;;;;;85.85;39.65;;;;;;;6.19;100.00;99680.19;5056260;28;20049;-65
2022/11/24 07:47:06;;;;;;;88.03;39.42;;;;;;;6.19;100.00;99674.88;5051528;28;20029;-65
2022/11/24 07:49:31;;;;;;;81.68;37.22;;;;;;;6.14;100.00;99644.25;5060279;28;20050;-65
2022/11/24 07:51:56;;;;;;;80.53;39.50;;;;;;;6.27;100.00;99669.78;5059540;28;20097;-64
2022/11/24 07:54:22;;;;;;;82.85;38.92;;;;;;;6.18;100.00;99664.34;5060987;28;20495;-65
2022/11/24 07:56:48;;;;;;;81.93;37.88;;;;;;;6.36;100.00;99686.84;5067088;28;20119;-66
2022/11/24 07:59:14;;;;;;;85.15;39.20;;;;;;;6.21;100.00;99682.72;5066328;28;20068;-65
2022/11/24 08:01:39;;;;;;;87.13;40.13;;;;;;;6.11;100.00;99671.97;5055150;28;20662;-65
2022/11/24 08:04:05;;;;;;;89.07;40.40;;;;;;;6.15;100.00;99694.72;5063968;28;20101;-65
2022/11/24 08:06:31;;;;;;;84.20;38.05;;;;;;;6.06;100.00;99670.66;5050675;28;20033;-65
2022/11/24 08:08:57;;;;;;;82.13;38.38;;;;;;;6.20;100.00;99691.69;5049200;28;20029;-65
2022/11/24 08:11:23;;;;;;;84.13;37.83;;;;;;;6.26;100.00;99693.88;5061002;28;20033;-65
2022/11/24 08:13:48;;;;;;;74.63;36.08;;;;;;;6.26;100.00;99700.03;5055819;28;20721;-66
2022/11/24 08:16:16;;;;;;;85.18;38.25;;;;;;;6.25;100.00;99702.81;5062902;28;20028;-65
2022/11/24 08:18:42;;;;;;;82.57;38.03;;;;;;;6.26;100.00;99696.53;5048359;28;20033;-65
2022/11/24 08:21:12;;;;;;;82.55;38.03;;;;;;;6.30;100.00;99712.16;5060946;28;20107;-65
2022/11/24 08:23:38;;;;;;;76.00;36.30;;;;;;;6.13;100.00;99687.84;5059858;28;20036;-65
2022/11/24 08:26:07;;;;;;;74.57;36.40;;;;;;;6.16;100.00;99688.41;5062859;28;20041;-65
2022/11/24 08:28:33;;;;;;;71.50;34.67;;;;;;;6.27;100.00;99715.06;5062084;28;20369;-65
2022/11/24 08:31:04;;;;;;;79.32;34.95;;;;;;;6.19;100.00;99708.66;5062516;28;20031;-66
2022/11/24 08:33:30;;;;;;;78.22;34.40;;;;;;;6.28;100.00;99715.88;5057609;28;20116;-65
2022/11/24 08:36:00;;;;;;;72.78;33.83;;;;;;;6.33;100.00;99717.22;5046535;28;20112;-66
2022/11/24 08:38:26;;;;;;;79.30;34.70;;;;;;;6.37;100.00;99725.81;5061950;28;20024;-66
2022/11/24 08:40:51;;;;;;;73.57;34.53;;;;;;;6.30;100.00;99713.94;5061164;28;20051;-65
2022/11/24 08:43:16;;;;;;;74.80;35.25;;;;;;;6.46;100.00;99725.06;5062220;28;20033;-65
2022/11/24 08:45:42;;;;;;;77.97;36.72;;;;;;;6.38;100.00;99722.16;5060765;28;20140;-65
2022/11/24 08:48:08;;;;;;;71.57;34.10;;;;;;;6.38;100.00;99723.00;5048625;28;20047;-66
2022/11/24 08:50:34;;;;;;;76.25;34.53;;;;;;;6.46;100.00;99735.72;5049601;28;20024;-66
2022/11/24 08:52:59;;;;;;;75.18;34.28;;;;;;;6.35;100.00;99733.91;5061240;28;20085;-66
2022/11/24 08:55:25;;;;;;;75.07;34.00;;;;;;;6.45;100.00;99734.88;5055885;28;20032;-66
2022/11/24 08:57:50;;;;;;;79.05;35.55;;;;;;;6.45;100.00;99737.53;5064834;28;20020;-65
2022/11/24 09:00:21;;;;;;;74.07;36.13;;;;;;;6.46;100.00;99735.72;5060004;28;20067;-65
2022/11/24 09:02:55;;;;;;;77.93;34.63;;;;;;;6.45;100.00;99745.53;5054013;28;20051;-66
2022/11/24 09:05:20;;;;;;;78.90;34.63;;;;;;;6.45;100.00;99739.38;5057240;28;20041;-65
2022/11/24 09:07:46;;;;;;;73.60;33.45;;;;;;;6.46;100.00;99739.25;5053718;28;20115;-65
2022/11/24 09:10:12;;;;;;;75.35;32.63;;;;;;;6.56;100.00;99747.34;5064181;28;20499;-65
2022/11/24 09:12:38;;;;;;;76.63;34.25;;;;;;;6.14;100.00;99677.06;5057744;28;20589;-65
2022/11/24 09:15:04;;;;;;;73.93;33.10;;;;;;;6.39;100.00;99730.03;5062471;28;20024;-66
2022/11/24 09:17:29;;;;;;;70.28;33.20;;;;;;;6.39;100.00;99724.69;5056643;28;20027;-65
2022/11/24 09:19:54;;;;;;;79.50;35.35;;;;;;;6.39;100.00;99707.91;5045559;28;20018;-66
2022/11/24 09:22:20;;;;;;;76.63;32.97;;;;;;;6.50;100.00;99742.50;5063764;28;20051;-65
2022/11/24 09:24:45;;;;;;;72.13;34.50;;;;;;;6.62;100.00;99747.66;5063003;28;20028;-73
2022/11/24 09:27:11;;;;;;;76.47;34.35;;;;;;;6.53;100.00;99737.78;5059421;28;20488;-73
2022/11/24 09:29:36;;;;;;;69.65;32.72;;;;;;;6.69;100.00;99748.03;5057295;28;20074;-73
2022/11/24 09:32:02;;;;;;;75.18;34.10;;;;;;;6.72;100.00;99745.97;5053125;28;20095;-73
2022/11/24 09:34:28;;;;;;;70.13;32.65;;;;;;;6.75;100.00;99750.19;5054671;28;20047;-73
2022/11/24 09:36:53;;;;;;;67.60;32.28;;;;;;;6.81;100.00;99749.72;5057998;28;20032;-73
2022/11/24 09:39:18;;;;;;;68.03;32.00;;;;;;;6.75;100.00;99755.53;5055903;28;20024;-73
2022/11/24 09:42:03;;;;;;;75.22;35.13;;;;;;;6.76;100.00;99759.88;5052049;28;20021;-73
2022/11/24 09:44:52;;;;;;;76.05;36.17;;;;;;;6.72;100.00;99753.97;5059469;28;20040;-72
2022/11/24 09:47:55;;;;;;;79.57;37.28;;;;;;;6.63;100.00;99732.53;5060457;28;20064;-73
2022/11/24 09:50:24;;;;;;;75.00;34.47;;;;;;;6.58;100.00;99754.22;5053929;28;20031;-74
2022/11/24 09:53:02;;;;;;;77.10;33.80;;;;;;;6.66;100.00;99753.59;5057021;28;20024;-73
2022/11/24 09:55:34;;;;;;;75.15;36.08;;;;;;;6.58;100.00;99751.56;5057794;28;20480;-73
2022/11/24 09:58:17;;;;;;;72.20;34.83;;;;;;;6.64;100.00;99753.72;5060802;28;20491;-73
2022/11/24 10:00:44;;;;;;;75.60;35.75;;;;;;;6.70;100.00;99760.38;5053166;28;20035;-73
2022/11/24 10:03:26;;;;;;;71.35;34.42;;;;;;;6.68;100.00;99743.69;5059861;28;20028;-73
2022/11/24 10:05:52;;;;;;;71.70;33.95;;;;;;;6.72;100.00;99758.44;5061781;28;20543;-73
2022/11/24 10:08:34;;;;;;;75.47;36.65;;;;;;;6.68;100.00;99763.16;5056401;28;20025;-73
2022/11/24 10:11:03;;;;;;;77.32;36.30;;;;;;;6.87;100.00;99760.69;5060620;28;20484;-73
2022/11/24 10:13:59;;;;;;;70.30;35.20;;;;;;;6.84;100.00;99765.47;5050318;28;20067;-73
2022/11/24 10:16:41;;;;;;;69.95;34.72;;;;;;;6.90;99.47;99752.47;5054694;28;20039;-73
2022/11/24 10:19:20;;;;;;;67.85;33.50;;;;;;;6.86;100.00;99761.69;5057739;28;20069;-73
2022/11/24 10:22:26;;;;;;;75.28;35.55;;;;;;;6.77;100.00;99761.56;5060756;28;20051;-73
2022/11/24 10:25:35;;;;;;;76.03;34.08;;;;;;;6.78;100.00;99764.09;5064531;28;20037;-73
2022/11/24 10:28:11;;;;;;;77.43;34.47;;;;;;;6.85;100.00;99765.34;5053887;28;20029;-73
2022/11/24 10:30:37;;;;;;;72.97;34.72;;;;;;;6.89;100.00;99749.91;5054236;28;20422;-72
2022/11/24 10:33:16;;;;;;;72.20;34.17;;;;;;;6.92;100.00;99755.84;5055163;28;20036;-65
2022/11/24 10:36:02;;;;;;;75.35;34.42;;;;;;;7.04;98.40;99754.81;5059529;28;20033;-65
2022/11/24 10:38:47;;;;;;;71.13;33.90;;;;;;;7.05;98.99;99766.34;5055155;28;20487;-73
2022/11/24 10:41:23;;;;;;;70.88;32.85;;;;;;;7.03;99.04;99762.13;5058676;28;20029;-73
2022/11/24 10:43:51;;;;;;;73.82;33.97;;;;;;;6.87;99.69;99751.88;5057455;28;20102;-72
2022/11/24 10:46:26;;;;;;;71.43;32.90;;;;;;;6.93;99.56;99751.34;5052679;28;20044;-65
2022/11/24 10:49:01;;;;;;;71.03;32.50;;;;;;;7.03;98.77;99764.78;5051739;28;20037;-66
2022/11/24 10:51:29;;;;;;;66.20;31.73;;;;;;;7.02;100.00;99757.78;5059329;28;20024;-66
2022/11/24 10:54:03;;;;;;;72.15;33.38;;;;;;;7.03;99.07;99748.78;5052873;28;20028;-65
2022/11/24 10:56:37;;;;;;;;;;;;;;;7.09;99.01;99764.28;5055685;28;20056;-66
2022/11/24 10:59:19;;;;;;;66.07;31.98;;;;;;;7.11;99.18;99759.66;5055248;28;20333;-66
2022/11/24 11:01:44;;;;;;;65.95;32.35;;;;;;;7.21;97.49;99758.78;5062584;28;20048;-65
2022/11/24 11:04:19;;;;;;;77.15;33.08;;;;;;;7.20;96.41;99745.56;5057932;28;20103;-66
2022/11/24 11:06:44;;;;;;;72.78;33.65;;;;;;;7.23;95.89;99748.84;5048965;28;20035;-66
2022/11/24 11:09:13;;;;;;;71.90;34.88;;;;;;;7.23;96.25;99764.00;5054649;28;20025;-65
2022/11/24 11:11:40;;;;;;;71.53;32.00;;;;;;;7.29;96.84;99771.50;5065286;28;20032;-65
2022/11/24 11:14:08;;;;;;;66.82;32.25;;;;;;;7.13;97.00;99755.91;5063389;28;20024;-66
2022/11/24 11:16:37;;;;;;;68.10;32.60;;;;;;;7.38;96.02;99776.88;5051946;28;20112;-65
2022/11/24 11:19:24;;;;;;;61.38;30.15;;;;;;;7.21;96.09;99756.13;5049413;28;20067;-65
2022/11/24 11:21:59;;;;;;;67.50;30.70;;;;;;;7.32;95.17;99763.22;5039295;28;20072;-65
2022/11/24 11:24:27;;;;;;;70.05;31.95;;;;;;;7.43;94.49;99771.16;5054553;28;20103;-65
2022/11/24 11:27:04;;;;;;;63.63;31.20;;;;;;;7.27;94.94;99750.28;5054789;28;20056;-66